Time;durP1;ratioP1;P1;durP2;ratioP2;P2;SDS_P1;SDS_P2;PMS_P1;PMS_P2;Temp;Humidity;BMP_temperature;BMP_pressure;BME280_temperature;BME280_humidity;BME280_pressure;Samples;Min_cycle;Max_cycle;Signal;HPM_P1;HPM_P2
2024/04/24 00:00:09;;;;;;;41.38;22.30;;;5.00;99.90;;;;;;6421451;22;20081;-78
2024/04/24 00:02:34;;;;;;;47.17;25.95;;;4.90;99.90;;;;;;6469689;22;20056;-78
2024/04/24 00:05:03;;;;;;;40.83;22.13;;;4.90;99.90;;;;;;6475650;22;20013;-78
2024/04/24 00:07:30;;;;;;;50.70;25.73;;;4.90;99.90;;;;;;6431266;22;20076;-78
2024/04/24 00:09:56;;;;;;;47.28;25.27;;;4.80;99.90;;;;;;6476272;22;20371;-78
2024/04/24 00:12:22;;;;;;;39.13;22.58;;;4.80;99.90;;;;;;6422327;22;20085;-78
2024/04/24 00:14:47;;;;;;;44.00;22.38;;;4.80;99.90;;;;;;6474227;22;20006;-78
2024/04/24 00:17:13;;;;;;;44.08;21.67;;;4.80;99.90;;;;;;6475600;22;20013;-78
2024/04/24 00:19:39;;;;;;;38.30;21.75;;;4.80;99.90;;;;;;6475297;22;20013;-79
2024/04/24 00:22:05;;;;;;;40.15;23.08;;;4.80;99.90;;;;;;6475056;22;20005;-78
2024/04/24 00:24:30;;;;;;;44.75;21.92;;;4.80;99.90;;;;;;6424690;22;20017;-78
2024/04/24 00:26:56;;;;;;;40.28;22.48;;;4.80;99.90;;;;;;6475046;22;20025;-78
2024/04/24 00:29:25;;;;;;;40.63;21.75;;;4.70;99.90;;;;;;6474242;22;20006;-78
2024/04/24 00:31:51;;;;;;;39.92;21.15;;;4.70;99.90;;;;;;6475226;22;20444;-79
2024/04/24 00:34:18;;;;;;;45.63;21.92;;;4.70;99.90;;;;;;6475062;22;20012;-78
2024/04/24 00:36:43;;;;;;;36.03;20.73;;;4.70;99.90;;;;;;6475843;22;20059;-78
2024/04/24 00:39:09;;;;;;;43.65;21.25;;;4.70;99.90;;;;;;6474758;22;20006;-78
2024/04/24 00:41:35;;;;;;;45.22;21.50;;;4.60;99.90;;;;;;6475026;22;20076;-78
2024/04/24 00:44:01;;;;;;;39.50;21.33;;;4.60;99.90;;;;;;6474865;22;20009;-78
2024/04/24 00:46:29;;;;;;;42.00;21.30;;;4.70;99.90;;;;;;6475012;22;20022;-78
2024/04/24 00:48:56;;;;;;;36.17;20.88;;;4.70;99.90;;;;;;6475915;22;20012;-78
2024/04/24 00:51:23;;;;;;;35.08;19.77;;;4.70;99.90;;;;;;6430587;22;20041;-79
2024/04/24 00:53:50;;;;;;;38.97;19.88;;;4.70;99.90;;;;;;6475391;22;20005;-79
2024/04/24 00:56:16;;;;;;;35.50;18.55;;;4.70;99.90;;;;;;6474807;22;20021;-78
2024/04/24 00:58:43;;;;;;;34.92;19.90;;;4.70;99.90;;;;;;6474871;22;20005;-78
2024/04/24 01:01:10;;;;;;;43.45;22.20;;;4.70;99.90;;;;;;6474033;22;20054;-78
2024/04/24 01:03:36;;;;;;;41.35;20.48;;;4.70;99.90;;;;;;6475828;22;20002;-80
2024/04/24 01:06:02;;;;;;;33.45;19.40;;;4.70;99.90;;;;;;6474414;22;20030;-79
2024/04/24 01:08:27;;;;;;;37.83;20.65;;;4.70;99.90;;;;;;6474909;22;20010;-77
2024/04/24 01:10:57;;;;;;;35.13;20.20;;;4.60;99.90;;;;;;6473532;22;20016;-77
2024/04/24 01:13:24;;;;;;;37.30;20.58;;;4.60;99.90;;;;;;6474792;22;20006;-77
2024/04/24 01:15:59;;;;;;;30.73;18.42;;;4.60;99.90;;;;;;6475345;22;19998;-77
2024/04/24 01:18:26;;;;;;;33.42;19.83;;;4.60;99.90;;;;;;6474748;22;20009;-78
2024/04/24 01:20:54;;;;;;;30.45;18.77;;;4.60;99.90;;;;;;6474937;22;20002;-78
2024/04/24 01:23:22;;;;;;;33.70;19.35;;;4.60;99.90;;;;;;6474620;22;20013;-78
2024/04/24 01:26:02;;;;;;;35.13;20.38;;;4.60;99.90;;;;;;6474912;22;20006;-78
2024/04/24 01:28:28;;;;;;;34.05;20.13;;;4.60;99.90;;;;;;6474224;22;20010;-79
2024/04/24 01:30:54;;;;;;;37.88;20.25;;;4.70;99.90;;;;;;6422199;22;20003;-79
2024/04/24 01:33:19;;;;;;;36.83;21.38;;;4.70;99.90;;;;;;6463622;22;20002;-78
2024/04/24 01:35:45;;;;;;;37.55;21.50;;;4.70;99.90;;;;;;6430195;22;20010;-78
2024/04/24 01:38:11;;;;;;;32.55;19.35;;;4.70;99.90;;;;;;6429902;22;20420;-79
2024/04/24 01:40:36;;;;;;;37.05;19.95;;;4.70;99.90;;;;;;6474829;22;20010;-79
2024/04/24 01:43:02;;;;;;;30.13;18.17;;;4.80;99.90;;;;;;6474646;22;20008;-79
2024/04/24 01:45:28;;;;;;;31.70;18.92;;;4.80;99.90;;;;;;6475239;22;20002;-78
2024/04/24 01:47:53;;;;;;;35.72;18.58;;;4.80;99.90;;;;;;6430159;22;20021;-79
2024/04/24 01:50:19;;;;;;;31.45;18.10;;;4.90;99.90;;;;;;6421984;22;20022;-78
2024/04/24 01:52:45;;;;;;;32.55;18.17;;;4.90;99.90;;;;;;6471953;22;20022;-78
2024/04/24 01:55:10;;;;;;;30.05;17.77;;;4.90;99.90;;;;;;6474457;22;19994;-79
2024/04/24 01:57:36;;;;;;;32.08;18.73;;;4.90;99.90;;;;;;6474993;22;20391;-78
2024/04/24 02:00:02;;;;;;;31.83;19.10;;;4.90;99.90;;;;;;6474527;22;20020;-77
2024/04/24 02:02:27;;;;;;;35.85;18.63;;;4.90;99.90;;;;;;6474025;22;20016;-78
2024/04/24 02:04:53;;;;;;;34.28;18.27;;;4.80;99.90;;;;;;6474066;22;20009;-78
2024/04/24 02:07:18;;;;;;;34.92;18.60;;;4.80;99.90;;;;;;6421363;22;20011;-77
2024/04/24 02:09:44;;;;;;;32.55;19.27;;;4.80;99.90;;;;;;6425805;22;20318;-78
2024/04/24 02:12:10;;;;;;;31.88;18.85;;;4.80;99.90;;;;;;6473243;22;20431;-78
2024/04/24 02:14:35;;;;;;;40.20;21.98;;;4.80;99.90;;;;;;6474018;22;20030;-78
2024/04/24 02:17:01;;;;;;;38.17;19.40;;;4.70;99.90;;;;;;6474191;22;20006;-78
2024/04/24 02:19:27;;;;;;;38.05;22.85;;;4.70;99.90;;;;;;6421106;22;20504;-78
2024/04/24 02:21:53;;;;;;;34.70;19.77;;;4.70;99.90;;;;;;6474750;22;19994;-76
2024/04/24 02:27:02;;;;;;;36.75;21.65;;;4.60;99.90;;;;;;6474015;22;20021;-77
2024/04/24 02:29:28;;;;;;;36.65;19.98;;;4.60;99.90;;;;;;6473410;22;20005;-76
2024/04/24 02:31:54;;;;;;;35.10;19.48;;;4.60;99.90;;;;;;6473858;22;20005;-77
2024/04/24 02:34:20;;;;;;;29.75;18.45;;;4.60;99.90;;;;;;6472344;22;20025;-77
2024/04/24 02:36:45;;;;;;;37.63;20.48;;;4.60;99.90;;;;;;6474748;22;20323;-76
2024/04/24 02:39:11;;;;;;;32.28;18.65;;;4.60;99.90;;;;;;6429498;22;20077;-76
2024/04/24 02:41:36;;;;;;;40.50;20.50;;;4.60;99.90;;;;;;6429901;22;20020;-77
2024/04/24 02:44:02;;;;;;;35.42;20.13;;;4.50;99.90;;;;;;6473381;22;20006;-76
2024/04/24 02:46:28;;;;;;;35.83;19.00;;;4.60;99.90;;;;;;6429609;22;20009;-79
2024/04/24 02:48:53;;;;;;;38.22;19.88;;;4.50;99.90;;;;;;6474550;22;20072;-78
2024/04/24 02:51:19;;;;;;;38.85;20.88;;;4.50;99.90;;;;;;6473755;22;20006;-77
2024/04/24 02:53:45;;;;;;;29.65;17.80;;;4.50;99.90;;;;;;6429162;22;20014;-79
2024/04/24 02:56:11;;;;;;;31.27;17.65;;;4.50;99.90;;;;;;6473723;22;20002;-79
2024/04/24 02:58:36;;;;;;;35.50;20.38;;;4.50;99.90;;;;;;6424582;22;20055;-78
2024/04/24 03:01:02;;;;;;;32.20;17.88;;;4.50;99.90;;;;;;6429485;22;20405;-79
2024/04/24 03:03:28;;;;;;;34.70;18.70;;;4.50;99.90;;;;;;6474356;22;19998;-79
2024/04/24 03:05:53;;;;;;;34.92;18.58;;;4.50;99.90;;;;;;6474240;22;20010;-79
2024/04/24 03:08:19;;;;;;;34.13;20.48;;;4.50;99.90;;;;;;6421207;22;20392;-79
2024/04/24 03:10:45;;;;;;;30.65;18.92;;;4.50;99.90;;;;;;6471688;22;20009;-79
2024/04/24 03:13:10;;;;;;;31.17;18.38;;;4.50;99.90;;;;;;6429639;22;20379;-79
2024/04/24 03:15:36;;;;;;;29.20;17.85;;;4.50;99.90;;;;;;6430028;22;20002;-79
2024/04/24 03:18:01;;;;;;;33.22;18.88;;;4.50;99.90;;;;;;6429509;22;20002;-76
2024/04/24 03:20:27;;;;;;;29.95;17.58;;;4.50;99.90;;;;;;6472216;22;20002;-76
2024/04/24 03:22:53;;;;;;;29.38;17.60;;;4.50;99.90;;;;;;6473787;22;20320;-76
2024/04/24 03:25:18;;;;;;;31.27;18.05;;;4.50;99.90;;;;;;6422648;22;20093;-76
2024/04/24 03:27:44;;;;;;;32.53;17.45;;;4.50;99.90;;;;;;6472663;22;19997;-76
2024/04/24 03:30:10;;;;;;;39.30;19.67;;;4.50;99.90;;;;;;6431456;22;20030;-76
2024/04/24 03:32:35;;;;;;;30.50;16.55;;;4.40;99.90;;;;;;6426422;22;20010;-76
2024/04/24 03:35:01;;;;;;;28.85;17.48;;;4.50;99.90;;;;;;6431280;22;20049;-76
2024/04/24 03:37:27;;;;;;;29.15;17.48;;;4.40;99.90;;;;;;6431379;22;20018;-76
2024/04/24 03:39:52;;;;;;;29.17;16.55;;;4.40;99.90;;;;;;6423811;22;20017;-76
2024/04/24 03:42:18;;;;;;;30.60;15.00;;;4.40;99.90;;;;;;6463585;22;20005;-77
2024/04/24 03:44:44;;;;;;;29.52;16.63;;;4.40;99.90;;;;;;6476103;22;20006;-77
2024/04/24 03:47:09;;;;;;;29.90;18.67;;;4.30;99.90;;;;;;6475563;22;20021;-79
2024/04/24 03:49:35;;;;;;;32.13;17.30;;;4.40;99.90;;;;;;6474955;22;20319;-78
2024/04/24 03:52:00;;;;;;;29.33;16.83;;;4.30;99.90;;;;;;6468178;22;20040;-77
2024/04/24 03:54:26;;;;;;;31.10;17.95;;;4.30;99.90;;;;;;6475594;22;20012;-78
2024/04/24 03:56:52;;;;;;;31.00;16.40;;;4.30;99.90;;;;;;6454341;22;20025;-78
2024/04/24 03:59:17;;;;;;;29.98;17.30;;;4.20;99.90;;;;;;6430719;22;20409;-77
2024/04/24 04:01:43;;;;;;;32.85;18.27;;;4.30;99.90;;;;;;6475505;22;20002;-78
2024/04/24 04:04:09;;;;;;;37.80;18.58;;;4.30;99.90;;;;;;6475359;22;19999;-78
2024/04/24 04:06:34;;;;;;;33.25;17.65;;;4.20;99.90;;;;;;6477169;22;20009;-78
2024/04/24 04:09:00;;;;;;;30.90;17.83;;;4.30;99.90;;;;;;6475509;22;20054;-77
2024/04/24 04:11:26;;;;;;;32.70;18.20;;;4.30;99.90;;;;;;6422411;22;20294;-77
2024/04/24 04:13:53;;;;;;;29.05;16.63;;;4.30;99.90;;;;;;6422571;22;20003;-77
2024/04/24 04:16:19;;;;;;;30.10;17.38;;;4.30;99.90;;;;;;6463905;22;20045;-77
2024/04/24 04:18:44;;;;;;;31.13;17.13;;;4.40;99.90;;;;;;6475810;22;20312;-77
2024/04/24 04:21:11;;;;;;;31.80;18.38;;;4.40;99.90;;;;;;6475431;22;20435;-77
2024/04/24 04:23:37;;;;;;;29.10;16.08;;;4.40;99.90;;;;;;6475280;22;20009;-77
2024/04/24 04:26:02;;;;;;;29.92;17.23;;;4.40;99.90;;;;;;6475159;22;20012;-78
2024/04/24 04:28:28;;;;;;;29.52;18.33;;;4.50;99.90;;;;;;6430725;22;20010;-79
2024/04/24 04:30:54;;;;;;;29.15;15.68;;;4.50;99.90;;;;;;6476090;22;20010;-78
2024/04/24 04:33:19;;;;;;;29.63;17.30;;;4.60;99.90;;;;;;6474282;22;20304;-78
2024/04/24 04:35:45;;;;;;;30.33;18.67;;;4.60;99.90;;;;;;6474211;22;20033;-78
2024/04/24 04:38:10;;;;;;;27.95;16.92;;;4.60;99.90;;;;;;6474800;22;20420;-79
2024/04/24 04:40:36;;;;;;;28.63;16.95;;;4.60;99.90;;;;;;6475465;22;20416;-78
2024/04/24 04:43:02;;;;;;;31.52;18.23;;;4.70;99.90;;;;;;6475045;22;20006;-78
2024/04/24 04:45:28;;;;;;;28.23;16.60;;;4.70;99.90;;;;;;6431361;22;20005;-78
2024/04/24 04:47:53;;;;;;;26.60;15.95;;;4.70;99.90;;;;;;6422173;22;20436;-79
2024/04/24 04:50:19;;;;;;;31.25;16.55;;;4.80;99.90;;;;;;6411163;22;20085;-79
2024/04/24 04:52:45;;;;;;;24.85;14.73;;;4.80;99.90;;;;;;6472501;22;20017;-79
2024/04/24 04:55:11;;;;;;;26.25;15.35;;;4.90;99.90;;;;;;6475122;22;20008;-79
2024/04/24 04:57:37;;;;;;;46.03;23.95;;;4.90;99.90;;;;;;6475437;22;20014;-79
2024/04/24 05:00:04;;;;;;;71.28;31.50;;;5.00;99.90;;;;;;6474871;22;20013;-77
2024/04/24 05:02:29;;;;;;;26.15;15.30;;;5.00;99.90;;;;;;6430545;22;20010;-80
2024/04/24 05:04:55;;;;;;;26.73;15.23;;;5.00;99.90;;;;;;6474758;22;20009;-82
2024/04/24 05:07:20;;;;;;;25.35;15.32;;;4.90;99.90;;;;;;6473957;22;20006;-77
2024/04/24 05:09:46;;;;;;;254.43;98.43;;;4.90;99.90;;;;;;6476650;22;20044;-75
2024/04/24 05:12:12;;;;;;;32.90;18.25;;;4.90;99.90;;;;;;6475665;22;20016;-77
2024/04/24 05:14:38;;;;;;;35.78;18.23;;;5.00;99.90;;;;;;6475827;22;20017;-77
2024/04/24 05:17:03;;;;;;;73.93;30.00;;;5.10;99.90;;;;;;6474582;22;20009;-79
2024/04/24 05:19:29;;;;;;;56.50;23.52;;;5.10;99.90;;;;;;6475855;22;20021;-78
2024/04/24 05:21:55;;;;;;;39.95;20.30;;;5.10;99.90;;;;;;6432367;22;20073;-78
2024/04/24 05:24:20;;;;;;;32.40;18.02;;;5.20;99.90;;;;;;6431718;22;20320;-80
2024/04/24 05:29:30;;;;;;;26.90;14.77;;;5.30;99.90;;;;;;6476063;22;20515;-84
2024/04/24 05:31:56;;;;;;;26.02;15.85;;;5.30;99.90;;;;;;6475039;22;20017;-82
2024/04/24 05:34:23;;;;;;;26.27;15.98;;;5.30;99.90;;;;;;6475456;22;20006;-76
2024/04/24 05:36:48;;;;;;;26.73;17.00;;;5.40;99.90;;;;;;6430571;22;19998;-78
2024/04/24 05:39:14;;;;;;;29.75;16.48;;;5.40;99.90;;;;;;6475467;22;20029;-78
2024/04/24 05:41:40;;;;;;;25.45;15.23;;;5.40;99.90;;;;;;6431048;22;20424;-78
2024/04/24 05:44:05;;;;;;;25.58;15.70;;;5.40;99.90;;;;;;6474081;22;20017;-78
2024/04/24 05:46:31;;;;;;;26.17;14.43;;;5.40;99.90;;;;;;6472830;22;20010;-77
2024/04/24 05:48:56;;;;;;;24.75;15.30;;;5.40;99.90;;;;;;6475417;22;20020;-81
2024/04/24 05:51:22;;;;;;;25.75;15.15;;;5.50;99.90;;;;;;6475581;22;20021;-82
2024/04/24 05:53:48;;;;;;;27.00;16.65;;;5.60;99.90;;;;;;6474936;22;20020;-82
2024/04/24 05:56:13;;;;;;;26.27;16.38;;;5.70;99.90;;;;;;6475682;22;20009;-81
2024/04/24 05:58:42;;;;;;;25.90;16.73;;;5.80;99.90;;;;;;6474485;22;20024;-81
2024/04/24 06:01:08;;;;;;;31.75;16.60;;;5.80;99.90;;;;;;6473324;22;20017;-80
2024/04/24 06:03:33;;;;;;;27.90;16.83;;;5.80;99.90;;;;;;6474047;22;20005;-78
2024/04/24 06:05:59;;;;;;;26.42;16.80;;;5.90;99.90;;;;;;6474671;22;20336;-79
2024/04/24 06:08:25;;;;;;;25.25;17.05;;;5.90;99.90;;;;;;6475557;22;20008;-80
2024/04/24 06:10:50;;;;;;;26.60;14.52;;;6.00;99.90;;;;;;6475924;22;20012;-81
2024/04/24 06:13:16;;;;;;;26.02;15.15;;;6.00;99.90;;;;;;6474625;22;20626;-81
2024/04/24 06:15:41;;;;;;;29.60;16.17;;;6.10;99.90;;;;;;6474402;22;20018;-84
2024/04/24 06:18:07;;;;;;;25.20;14.95;;;6.20;99.90;;;;;;6474432;22;20006;-81
2024/04/24 06:20:33;;;;;;;28.42;14.77;;;6.30;99.90;;;;;;6430563;22;20014;-83
2024/04/24 06:22:58;;;;;;;23.00;14.63;;;6.20;99.90;;;;;;6432049;22;20002;-82
2024/04/24 06:25:24;;;;;;;24.92;14.50;;;6.30;99.90;;;;;;6475014;22;20022;-82
2024/04/24 06:27:50;;;;;;;28.13;15.63;;;6.30;99.90;;;;;;6475199;22;20420;-84
2024/04/24 06:30:15;;;;;;;22.65;14.32;;;6.40;99.90;;;;;;6471623;22;20025;-83
2024/04/24 06:32:41;;;;;;;27.48;15.43;;;6.40;99.90;;;;;;6466868;22;20171;-84
2024/04/24 06:35:06;;;;;;;23.90;15.68;;;6.50;99.90;;;;;;6468087;22;19998;-84
2024/04/24 06:37:32;;;;;;;25.23;15.23;;;6.40;99.90;;;;;;6468823;22;20006;-84
2024/04/24 06:39:58;;;;;;;25.00;15.45;;;6.50;99.90;;;;;;6469023;22;20415;-84
2024/04/24 06:42:23;;;;;;;23.88;15.02;;;6.50;99.90;;;;;;6468820;22;20020;-84
2024/04/24 06:44:50;;;;;;;22.25;14.60;;;6.60;99.90;;;;;;6469631;22;20049;-84
2024/04/24 06:47:16;;;;;;;22.52;14.35;;;6.70;99.90;;;;;;6473777;22;20344;-85
2024/04/24 06:49:42;;;;;;;25.42;15.05;;;6.80;99.90;;;;;;6473920;22;20020;-85
2024/04/24 06:52:07;;;;;;;25.02;15.10;;;6.80;99.90;;;;;;6474069;22;20412;-84
2024/04/24 06:54:33;;;;;;;29.50;17.25;;;6.80;99.90;;;;;;6429569;22;20072;-84
2024/04/24 06:56:58;;;;;;;26.70;15.10;;;6.90;99.90;;;;;;6474432;22;20020;-84
2024/04/24 06:59:25;;;;;;;23.67;13.38;;;7.00;99.90;;;;;;6475730;22;20009;-84
2024/04/24 07:01:51;;;;;;;25.58;16.27;;;7.00;99.90;;;;;;6424481;22;20013;-84
2024/04/24 07:04:18;;;;;;;25.60;14.30;;;7.10;99.90;;;;;;6463794;22;20005;-84
2024/04/24 07:06:43;;;;;;;24.27;15.27;;;7.10;99.90;;;;;;6429537;22;20017;-85
2024/04/24 07:09:09;;;;;;;24.63;14.20;;;7.30;99.90;;;;;;6476169;22;20002;-84
2024/04/24 07:11:35;;;;;;;21.60;15.48;;;7.50;99.90;;;;;;6431808;22;20001;-85
2024/04/24 07:14:01;;;;;;;23.90;13.98;;;7.60;99.90;;;;;;6477018;22;20009;-85
2024/04/24 07:16:28;;;;;;;25.13;15.07;;;7.60;99.90;;;;;;6475790;22;20006;-84
2024/04/24 07:18:54;;;;;;;21.27;13.55;;;7.40;99.90;;;;;;6431611;22;20401;-84
2024/04/24 07:21:20;;;;;;;22.42;12.25;;;7.50;99.90;;;;;;6475841;22;20017;-84
2024/04/24 07:23:45;;;;;;;20.30;13.73;;;7.30;99.90;;;;;;6430122;22;20313;-83
2024/04/24 07:26:11;;;;;;;21.75;13.20;;;7.30;99.90;;;;;;6476586;22;19998;-84
2024/04/24 07:28:36;;;;;;;20.70;11.90;;;7.20;99.90;;;;;;6475825;22;20096;-84
2024/04/24 07:31:02;;;;;;;21.15;12.88;;;7.20;99.90;;;;;;6476117;22;20006;-84
2024/04/24 07:33:28;;;;;;;20.75;12.63;;;7.30;99.90;;;;;;6475724;22;20005;-84
2024/04/24 07:35:54;;;;;;;19.33;13.05;;;7.30;99.90;;;;;;6475676;22;20006;-84
2024/04/24 07:38:20;;;;;;;22.35;13.07;;;7.40;99.90;;;;;;6423008;22;20077;-83
2024/04/24 07:40:46;;;;;;;26.20;16.02;;;7.50;99.90;;;;;;6474610;22;20018;-84
2024/04/24 07:43:13;;;;;;;17.83;12.40;;;7.40;99.90;;;;;;6475835;22;20404;-85
2024/04/24 07:45:40;;;;;;;25.02;13.25;;;7.40;99.90;;;;;;6475739;22;20436;-84
2024/04/24 07:48:06;;;;;;;18.67;12.38;;;7.30;99.90;;;;;;6475677;22;20005;-84
2024/04/24 07:50:31;;;;;;;23.60;13.27;;;7.40;99.90;;;;;;6475843;22;20085;-83
2024/04/24 07:52:57;;;;;;;24.50;14.18;;;7.30;99.90;;;;;;6476101;22;20030;-84
2024/04/24 07:55:23;;;;;;;22.42;12.48;;;7.40;99.90;;;;;;6476007;22;20006;-84
2024/04/24 07:57:48;;;;;;;21.85;13.25;;;7.40;99.90;;;;;;6475640;22;20005;-84
2024/04/24 08:00:14;;;;;;;20.90;13.43;;;7.60;99.90;;;;;;6475931;22;20021;-84
2024/04/24 08:02:40;;;;;;;25.17;13.90;;;7.80;99.90;;;;;;6431259;22;20028;-84
2024/04/24 08:05:06;;;;;;;21.35;14.32;;;7.90;99.90;;;;;;6476191;22;19994;-85
2024/04/24 08:07:33;;;;;;;20.83;13.52;;;7.80;99.90;;;;;;6475721;22;20002;-85
2024/04/24 08:09:59;;;;;;;19.25;12.10;;;7.70;99.90;;;;;;6475643;22;20471;-85
2024/04/24 08:12:25;;;;;;;19.83;12.93;;;7.60;99.90;;;;;;6475574;22;20013;-84
2024/04/24 08:14:50;;;;;;;20.50;13.57;;;7.70;99.90;;;;;;6475902;22;20024;-83
2024/04/24 08:17:16;;;;;;;20.02;12.48;;;7.80;99.90;;;;;;6476154;22;20012;-85
2024/04/24 08:19:42;;;;;;;19.60;13.45;;;7.90;99.90;;;;;;6475845;22;20305;-85
2024/04/24 08:22:07;;;;;;;20.73;12.88;;;8.00;99.90;;;;;;6475120;22;20002;-84
2024/04/24 08:24:33;;;;;;;19.65;12.70;;;8.20;99.90;;;;;;6431646;22;20014;-84
2024/04/24 08:26:58;;;;;;;18.67;12.70;;;8.30;98.90;;;;;;6423007;22;20038;-84
2024/04/24 08:29:27;;;;;;;16.98;12.93;;;8.50;96.70;;;;;;6466251;22;20456;-84
2024/04/24 08:31:53;;;;;;;18.27;11.98;;;8.40;95.20;;;;;;6423221;22;19998;-83
2024/04/24 08:34:18;;;;;;;20.55;12.90;;;8.40;96.20;;;;;;6463656;22;20024;-84
2024/04/24 08:36:44;;;;;;;18.83;12.95;;;8.50;96.40;;;;;;6475407;22;20062;-84
2024/04/24 08:39:14;;;;;;;20.38;14.30;;;8.60;96.50;;;;;;6430702;22;20006;-84
2024/04/24 08:41:41;;;;;;;17.00;11.07;;;8.60;97.20;;;;;;6475020;22;20015;-84
2024/04/24 08:44:09;;;;;;;19.00;12.15;;;8.70;95.00;;;;;;6476044;22;19994;-84
2024/04/24 08:46:35;;;;;;;17.23;11.40;;;8.40;95.20;;;;;;6433145;22;20005;-84
2024/04/24 08:49:04;;;;;;;21.25;13.15;;;8.40;94.70;;;;;;6480935;22;20017;-83
2024/04/24 08:51:32;;;;;;;16.77;11.38;;;8.40;94.60;;;;;;6437800;22;20379;-84
2024/04/24 08:54:02;;;;;;;19.35;11.43;;;8.40;96.00;;;;;;6481178;22;20024;-84
2024/04/24 08:56:43;;;;;;;19.92;12.77;;;8.40;96.20;;;;;;6474946;22;20005;-84
2024/04/24 08:59:21;;;;;;;19.10;11.98;;;8.40;97.00;;;;;;6475788;22;20005;-85
2024/04/24 09:01:56;;;;;;;18.48;11.18;;;8.50;94.90;;;;;;6475523;22;20010;-84
2024/04/24 09:04:24;;;;;;;16.02;11.95;;;8.60;92.30;;;;;;6474760;22;20016;-85
2024/04/24 09:06:50;;;;;;;14.77;10.45;;;8.80;91.80;;;;;;6430788;22;20009;-84
2024/04/24 09:09:17;;;;;;;18.83;11.10;;;8.80;90.40;;;;;;6474862;22;20009;-84
2024/04/24 09:11:43;;;;;;;16.20;11.05;;;8.80;89.10;;;;;;6430486;22;20005;-84
2024/04/24 09:14:09;;;;;;;17.55;10.68;;;8.70;89.00;;;;;;6475427;22;19994;-84
2024/04/24 09:16:36;;;;;;;15.15;10.63;;;8.70;89.90;;;;;;6474676;22;20433;-84
2024/04/24 09:19:03;;;;;;;15.38;10.77;;;8.70;90.40;;;;;;6475006;22;20017;-84
2024/04/24 09:21:29;;;;;;;18.70;11.00;;;8.90;89.40;;;;;;6474568;22;20336;-84
2024/04/24 09:23:55;;;;;;;18.52;10.73;;;9.00;88.30;;;;;;6430211;22;20011;-85
2024/04/24 09:26:21;;;;;;;19.10;12.68;;;9.30;88.00;;;;;;6474886;22;20035;-84
2024/04/24 09:28:47;;;;;;;15.90;11.02;;;9.30;85.90;;;;;;6475266;22;19994;-84
2024/04/24 09:31:13;;;;;;;17.73;10.63;;;9.50;84.90;;;;;;6475016;22;20014;-84
2024/04/24 09:33:39;;;;;;;16.80;10.98;;;9.50;82.80;;;;;;6474350;22;20009;-84
2024/04/24 09:36:05;;;;;;;15.40;9.90;;;9.40;82.50;;;;;;6430354;22;20006;-84
2024/04/24 09:38:32;;;;;;;17.02;9.13;;;9.40;82.90;;;;;;6474113;22;20008;-84
2024/04/24 09:41:01;;;;;;;15.38;10.50;;;9.30;82.50;;;;;;6431122;22;20002;-84
2024/04/24 09:43:28;;;;;;;15.10;11.15;;;9.20;82.30;;;;;;6474466;22;20572;-84
2024/04/24 09:45:57;;;;;;;14.98;9.98;;;9.30;82.50;;;;;;6430063;22;20005;-84
2024/04/24 09:48:23;;;;;;;14.05;9.90;;;9.40;82.90;;;;;;6430005;22;20006;-85
2024/04/24 09:50:52;;;;;;;16.88;10.35;;;9.50;83.40;;;;;;6474540;22;20340;-84
2024/04/24 09:53:18;;;;;;;15.02;9.90;;;9.60;83.10;;;;;;6475120;22;20037;-84
2024/04/24 09:55:56;;;;;;;16.48;11.27;;;9.50;82.50;;;;;;6429975;22;20156;-84
2024/04/24 09:58:23;;;;;;;16.13;10.32;;;9.50;82.80;;;;;;6474437;22;20006;-84
2024/04/24 10:00:52;;;;;;;14.15;9.65;;;9.60;83.50;;;;;;6473732;22;20001;-83
2024/04/24 10:03:22;;;;;;;15.65;9.30;;;9.80;82.80;;;;;;6474110;22;20497;-84
2024/04/24 10:05:52;;;;;;;12.68;8.65;;;9.80;80.70;;;;;;6474264;22;20300;-85
2024/04/24 10:08:24;;;;;;;12.02;8.75;;;9.50;81.60;;;;;;6474787;22;20090;-85
2024/04/24 10:10:53;;;;;;;13.55;9.40;;;9.70;82.30;;;;;;6474612;22;20010;-84
2024/04/24 10:13:19;;;;;;;11.05;8.05;;;9.60;81.10;;;;;;6474168;22;20010;-84
2024/04/24 10:15:53;;;;;;;11.60;7.80;;;9.60;81.30;;;;;;6474269;22;20083;-84
2024/04/24 10:18:20;;;;;;;12.95;9.18;;;9.80;82.00;;;;;;6474114;22;20016;-84
2024/04/24 10:20:47;;;;;;;16.45;9.82;;;10.00;80.40;;;;;;6429768;22;20017;-83
2024/04/24 10:23:15;;;;;;;13.43;9.88;;;9.90;78.50;;;;;;6474945;22;20004;-84
2024/04/24 10:25:42;;;;;;;13.25;8.68;;;10.00;78.50;;;;;;6429655;22;20005;-84
2024/04/24 10:28:10;;;;;;;11.68;8.88;;;9.90;78.90;;;;;;6473884;22;20097;-85
2024/04/24 10:30:37;;;;;;;13.02;9.48;;;9.90;78.90;;;;;;6473943;22;20327;-83
2024/04/24 10:33:06;;;;;;;12.70;9.63;;;9.70;79.40;;;;;;6473392;22;20006;-84
2024/04/24 10:35:32;;;;;;;23.55;13.77;;;9.80;79.90;;;;;;6428729;22;20037;-85
2024/04/24 10:37:58;;;;;;;23.08;13.90;;;9.80;78.30;;;;;;6429615;22;20439;-85
2024/04/24 10:40:28;;;;;;;18.83;10.25;;;9.80;78.10;;;;;;6429580;22;20054;-84
2024/04/24 10:43:05;;;;;;;12.50;9.52;;;9.90;78.70;;;;;;6429276;22;20037;-84
2024/04/24 10:45:38;;;;;;;15.20;9.48;;;9.90;77.80;;;;;;6473772;22;20010;-85
2024/04/24 10:48:05;;;;;;;12.57;7.88;;;9.80;76.20;;;;;;6473553;22;20006;-84
2024/04/24 10:50:34;;;;;;;10.32;7.80;;;9.70;74.90;;;;;;6429166;22;20417;-84
2024/04/24 10:53:02;;;;;;;11.10;7.78;;;9.70;74.50;;;;;;6474242;22;20068;-84
2024/04/24 10:55:28;;;;;;;12.73;8.07;;;9.60;75.30;;;;;;6473476;22;20005;-84
2024/04/24 10:57:54;;;;;;;10.23;8.25;;;9.60;75.40;;;;;;6473541;22;20076;-84
2024/04/24 11:00:22;;;;;;;12.65;8.15;;;9.70;75.30;;;;;;6429475;22;20017;-85
2024/04/24 11:02:55;;;;;;;11.05;7.85;;;9.70;75.30;;;;;;6473338;22;20010;-84
2024/04/24 11:05:22;;;;;;;12.27;8.77;;;9.60;74.70;;;;;;6473765;22;19998;-83
2024/04/24 11:07:58;;;;;;;12.55;8.25;;;9.60;74.70;;;;;;6474414;22;20421;-84
2024/04/24 11:10:24;;;;;;;11.75;8.07;;;9.60;73.40;;;;;;6473769;22;20012;-84
2024/04/24 11:12:50;;;;;;;11.98;8.43;;;9.70;73.70;;;;;;6429029;22;20308;-84
2024/04/24 11:15:23;;;;;;;10.15;7.68;;;9.60;75.70;;;;;;6473948;22;20084;-84
2024/04/24 11:17:52;;;;;;;11.88;8.07;;;9.50;75.20;;;;;;6473950;22;20320;-84
2024/04/24 11:20:24;;;;;;;11.30;8.38;;;9.60;76.30;;;;;;6474257;22;19998;-83
2024/04/24 11:22:49;;;;;;;13.38;8.10;;;9.70;74.40;;;;;;6473775;22;20030;-84
2024/04/24 11:25:17;;;;;;;11.50;7.85;;;9.70;73.40;;;;;;6473732;22;20404;-85
2024/04/24 11:27:44;;;;;;;10.02;7.80;;;9.80;73.50;;;;;;6473843;22;20002;-85
2024/04/24 11:30:10;;;;;;;10.90;8.25;;;9.90;73.20;;;;;;6473057;22;20006;-82
2024/04/24 11:32:38;;;;;;;12.77;8.70;;;10.10;72.70;;;;;;6473408;22;20017;-84
2024/04/24 11:35:05;;;;;;;13.52;8.05;;;10.10;72.00;;;;;;6429437;22;19994;-82
2024/04/24 11:37:31;;;;;;;11.52;8.30;;;10.30;72.40;;;;;;6425614;22;20038;-83
2024/04/24 11:39:57;;;;;;;11.98;8.60;;;10.30;71.80;;;;;;6468958;22;20017;-79
2024/04/24 11:42:23;;;;;;;13.63;8.95;;;10.10;71.00;;;;;;6427088;22;20021;-79
2024/04/24 11:44:48;;;;;;;10.63;8.50;;;10.10;71.50;;;;;;6472967;22;20002;-81
2024/04/24 11:47:18;;;;;;;17.38;8.32;;;10.10;71.60;;;;;;6473741;22;19994;-84
2024/04/24 11:49:52;;;;;;;11.07;8.13;;;10.00;71.30;;;;;;6429789;22;20002;-83
2024/04/24 11:52:18;;;;;;;11.30;8.55;;;10.10;71.50;;;;;;6473771;22;20079;-78
2024/04/24 11:54:53;;;;;;;12.85;8.13;;;10.00;70.90;;;;;;6473402;22;20409;-78
2024/04/24 11:57:20;;;;;;;13.07;9.50;;;9.90;71.20;;;;;;6429118;22;20077;-79
2024/04/24 11:59:47;;;;;;;10.85;8.70;;;9.90;71.20;;;;;;6474177;22;20017;-79
2024/04/24 12:02:16;;;;;;;10.73;7.90;;;10.00;72.00;;;;;;6473280;22;20129;-77
2024/04/24 12:04:46;;;;;;;10.90;8.43;;;10.00;72.20;;;;;;6474560;22;20618;-77
2024/04/24 12:07:15;;;;;;;12.98;8.60;;;10.00;71.10;;;;;;6429598;22;20014;-78
2024/04/24 12:09:43;;;;;;;15.05;9.65;;;10.00;71.40;;;;;;6474130;22;20006;-79
2024/04/24 12:12:09;;;;;;;11.63;7.90;;;10.00;71.40;;;;;;6471955;22;20002;-78
2024/04/24 12:14:39;;;;;;;12.43;9.15;;;10.00;71.00;;;;;;6428400;22;20001;-77
2024/04/24 12:17:05;;;;;;;12.32;8.90;;;10.00;70.80;;;;;;6473183;22;20005;-80
2024/04/24 12:19:31;;;;;;;10.10;8.27;;;10.00;70.90;;;;;;6471948;22;20006;-80
2024/04/24 12:21:57;;;;;;;11.15;8.30;;;10.10;70.50;;;;;;6473505;22;20020;-80
2024/04/24 12:24:24;;;;;;;11.02;8.10;;;10.10;70.40;;;;;;6429370;22;20087;-84
2024/04/24 12:26:51;;;;;;;13.95;8.38;;;10.00;70.50;;;;;;6429480;22;20079;-84
2024/04/24 12:29:19;;;;;;;16.35;9.00;;;9.90;70.20;;;;;;6473162;22;20305;-86
2024/04/24 12:31:45;;;;;;;11.57;8.88;;;9.90;70.30;;;;;;6472893;22;20012;-79
2024/04/24 12:34:11;;;;;;;13.63;9.48;;;9.90;70.90;;;;;;6429241;22;20017;-79
2024/04/24 12:36:44;;;;;;;16.33;11.55;;;9.80;71.00;;;;;;6473652;22;20010;-79
2024/04/24 12:39:10;;;;;;;15.80;10.80;;;9.90;71.70;;;;;;6472340;22;20018;-79